sensor_id;sensor_type;location;lat;lon;timestamp;temperature;humidity
4312;DHT22;2169;49.086;9.284;2023-01-04T00:01:28;4.40;69.00
4312;DHT22;2169;49.086;9.284;2023-01-04T00:03:57;4.40;69.00
4312;DHT22;2169;49.086;9.284;2023-01-04T00:06:23;4.40;69.10
4312;DHT22;2169;49.086;9.284;2023-01-04T00:08:50;4.40;69.10
4312;DHT22;2169;49.086;9.284;2023-01-04T00:11:19;4.30;69.00
4312;DHT22;2169;49.086;9.284;2023-01-04T00:13:47;4.30;69.00
4312;DHT22;2169;49.086;9.284;2023-01-04T00:16:15;4.30;69.00
4312;DHT22;2169;49.086;9.284;2023-01-04T00:18:43;4.30;69.00
4312;DHT22;2169;49.086;9.284;2023-01-04T00:21:12;4.20;69.00
4312;DHT22;2169;49.086;9.284;2023-01-04T00:23:40;4.20;69.00
4312;DHT22;2169;49.086;9.284;2023-01-04T00:26:08;4.20;69.00
4312;DHT22;2169;49.086;9.284;2023-01-04T00:28:35;4.10;69.00
4312;DHT22;2169;49.086;9.284;2023-01-04T00:31:03;4.10;69.00
4312;DHT22;2169;49.086;9.284;2023-01-04T00:33:31;4.10;69.10
4312;DHT22;2169;49.086;9.284;2023-01-04T00:36:02;4.10;69.20
4312;DHT22;2169;49.086;9.284;2023-01-04T00:38:31;4.10;69.30
4312;DHT22;2169;49.086;9.284;2023-01-04T00:40:58;4.10;69.50
4312;DHT22;2169;49.086;9.284;2023-01-04T00:43:25;4.10;69.60
4312;DHT22;2169;49.086;9.284;2023-01-04T00:45:52;4.10;69.80
4312;DHT22;2169;49.086;9.284;2023-01-04T00:48:20;4.20;70.00
4312;DHT22;2169;49.086;9.284;2023-01-04T00:50:47;4.20;70.20
4312;DHT22;2169;49.086;9.284;2023-01-04T00:53:15;4.20;70.30
4312;DHT22;2169;49.086;9.284;2023-01-04T00:55:44;4.20;70.30
4312;DHT22;2169;49.086;9.284;2023-01-04T00:58:11;4.30;70.50
4312;DHT22;2169;49.086;9.284;2023-01-04T01:00:38;4.30;70.50
4312;DHT22;2169;49.086;9.284;2023-01-04T01:03:05;4.30;70.50
4312;DHT22;2169;49.086;9.284;2023-01-04T01:05:32;4.30;70.50
4312;DHT22;2169;49.086;9.284;2023-01-04T01:07:59;4.30;70.60
4312;DHT22;2169;49.086;9.284;2023-01-04T01:10:48;4.30;70.60
4312;DHT22;2169;49.086;9.284;2023-01-04T01:13:14;4.30;70.60
4312;DHT22;2169;49.086;9.284;2023-01-04T01:15:41;4.30;70.70
4312;DHT22;2169;49.086;9.284;2023-01-04T01:18:08;4.20;70.60
4312;DHT22;2169;49.086;9.284;2023-01-04T01:20:39;4.30;70.70
4312;DHT22;2169;49.086;9.284;2023-01-04T01:23:06;4.30;70.80
4312;DHT22;2169;49.086;9.284;2023-01-04T01:25:33;4.20;70.60
4312;DHT22;2169;49.086;9.284;2023-01-04T01:28:01;4.20;70.70
4312;DHT22;2169;49.086;9.284;2023-01-04T01:30:28;4.20;70.70
4312;DHT22;2169;49.086;9.284;2023-01-04T01:32:54;4.20;70.70
4312;DHT22;2169;49.086;9.284;2023-01-04T01:35:21;4.10;70.70
4312;DHT22;2169;49.086;9.284;2023-01-04T01:37:48;4.10;70.70
4312;DHT22;2169;49.086;9.284;2023-01-04T01:40:15;4.10;70.80
4312;DHT22;2169;49.086;9.284;2023-01-04T01:42:41;4.10;70.80
4312;DHT22;2169;49.086;9.284;2023-01-04T01:45:23;4.10;70.80
4312;DHT22;2169;49.086;9.284;2023-01-04T01:47:51;4.10;70.80
4312;DHT22;2169;49.086;9.284;2023-01-04T01:50:24;4.10;70.80
4312;DHT22;2169;49.086;9.284;2023-01-04T01:52:53;4.10;70.80
4312;DHT22;2169;49.086;9.284;2023-01-04T01:55:21;4.10;70.90
4312;DHT22;2169;49.086;9.284;2023-01-04T01:57:49;4.10;70.90
4312;DHT22;2169;49.086;9.284;2023-01-04T02:00:20;4.00;70.90
4312;DHT22;2169;49.086;9.284;2023-01-04T02:02:53;4.00;70.90
4312;DHT22;2169;49.086;9.284;2023-01-04T02:05:23;4.10;71.10
4312;DHT22;2169;49.086;9.284;2023-01-04T02:07:51;4.00;71.10
4312;DHT22;2169;49.086;9.284;2023-01-04T02:10:18;4.00;71.10
4312;DHT22;2169;49.086;9.284;2023-01-04T02:12:46;4.00;71.20
4312;DHT22;2169;49.086;9.284;2023-01-04T02:15:15;4.10;71.30
4312;DHT22;2169;49.086;9.284;2023-01-04T02:17:48;4.00;71.20
4312;DHT22;2169;49.086;9.284;2023-01-04T02:20:32;4.00;71.30
4312;DHT22;2169;49.086;9.284;2023-01-04T02:26:29;4.10;71.50
4312;DHT22;2169;49.086;9.284;2023-01-04T02:29:21;4.10;71.60
4312;DHT22;2169;49.086;9.284;2023-01-04T02:31:58;4.10;71.60
4312;DHT22;2169;49.086;9.284;2023-01-04T02:34:32;4.10;71.60
4312;DHT22;2169;49.086;9.284;2023-01-04T02:37:07;4.10;71.60
4312;DHT22;2169;49.086;9.284;2023-01-04T02:39:43;4.10;71.70
4312;DHT22;2169;49.086;9.284;2023-01-04T02:42:20;4.10;71.70
4312;DHT22;2169;49.086;9.284;2023-01-04T02:45:11;4.10;71.70
4312;DHT22;2169;49.086;9.284;2023-01-04T02:47:41;4.10;71.70
4312;DHT22;2169;49.086;9.284;2023-01-04T02:50:29;4.10;71.80
4312;DHT22;2169;49.086;9.284;2023-01-04T02:52:57;4.10;71.80
4312;DHT22;2169;49.086;9.284;2023-01-04T02:55:31;4.10;71.90
4312;DHT22;2169;49.086;9.284;2023-01-04T02:58:02;4.10;71.90
4312;DHT22;2169;49.086;9.284;2023-01-04T03:00:43;4.10;71.90
4312;DHT22;2169;49.086;9.284;2023-01-04T03:03:36;4.20;72.10
4312;DHT22;2169;49.086;9.284;2023-01-04T03:06:30;4.10;72.00
4312;DHT22;2169;49.086;9.284;2023-01-04T03:09:04;4.20;72.20
4312;DHT22;2169;49.086;9.284;2023-01-04T03:11:36;4.20;72.20
4312;DHT22;2169;49.086;9.284;2023-01-04T03:14:25;4.20;72.20
4312;DHT22;2169;49.086;9.284;2023-01-04T03:16:54;4.20;72.20
4312;DHT22;2169;49.086;9.284;2023-01-04T03:19:23;4.20;72.20
4312;DHT22;2169;49.086;9.284;2023-01-04T03:22:05;4.20;72.30
4312;DHT22;2169;49.086;9.284;2023-01-04T03:24:53;4.20;72.30
4312;DHT22;2169;49.086;9.284;2023-01-04T03:27:44;4.20;72.30
4312;DHT22;2169;49.086;9.284;2023-01-04T03:30:30;4.20;72.30
4312;DHT22;2169;49.086;9.284;2023-01-04T03:33:18;4.20;72.30
4312;DHT22;2169;49.086;9.284;2023-01-04T03:36:18;4.20;72.40
4312;DHT22;2169;49.086;9.284;2023-01-04T03:38:55;4.20;72.30
4312;DHT22;2169;49.086;9.284;2023-01-04T03:41:47;4.30;72.40
4312;DHT22;2169;49.086;9.284;2023-01-04T03:44:38;4.20;72.30
4312;DHT22;2169;49.086;9.284;2023-01-04T03:47:27;4.20;72.30
4312;DHT22;2169;49.086;9.284;2023-01-04T03:50:15;4.20;72.30
4312;DHT22;2169;49.086;9.284;2023-01-04T03:52:46;4.20;72.30
4312;DHT22;2169;49.086;9.284;2023-01-04T03:55:15;4.20;72.40
4312;DHT22;2169;49.086;9.284;2023-01-04T03:57:43;4.20;72.40
4312;DHT22;2169;49.086;9.284;2023-01-04T04:00:14;4.20;72.40
4312;DHT22;2169;49.086;9.284;2023-01-04T04:02:41;4.20;72.40
4312;DHT22;2169;49.086;9.284;2023-01-04T04:05:15;4.20;72.50
4312;DHT22;2169;49.086;9.284;2023-01-04T04:08:01;4.30;72.60
4312;DHT22;2169;49.086;9.284;2023-01-04T04:10:46;4.30;72.70
4312;DHT22;2169;49.086;9.284;2023-01-04T04:13:13;4.30;72.70
4312;DHT22;2169;49.086;9.284;2023-01-04T04:15:39;4.30;72.70
4312;DHT22;2169;49.086;9.284;2023-01-04T04:18:06;4.30;72.70
4312;DHT22;2169;49.086;9.284;2023-01-04T04:20:33;4.30;72.80
4312;DHT22;2169;49.086;9.284;2023-01-04T04:23:02;4.40;72.90
4312;DHT22;2169;49.086;9.284;2023-01-04T04:25:29;4.40;72.90
4312;DHT22;2169;49.086;9.284;2023-01-04T04:27:55;4.40;72.90
4312;DHT22;2169;49.086;9.284;2023-01-04T04:30:22;4.40;73.00
4312;DHT22;2169;49.086;9.284;2023-01-04T04:32:49;4.40;73.00
4312;DHT22;2169;49.086;9.284;2023-01-04T04:35:16;4.50;73.10
4312;DHT22;2169;49.086;9.284;2023-01-04T04:37:43;4.50;73.10
4312;DHT22;2169;49.086;9.284;2023-01-04T04:40:12;4.50;73.10
4312;DHT22;2169;49.086;9.284;2023-01-04T04:43:07;4.50;73.10
4312;DHT22;2169;49.086;9.284;2023-01-04T04:45:32;4.50;73.10
4312;DHT22;2169;49.086;9.284;2023-01-04T04:47:59;4.50;73.10
4312;DHT22;2169;49.086;9.284;2023-01-04T04:50:26;4.50;73.10
4312;DHT22;2169;49.086;9.284;2023-01-04T04:52:53;4.50;73.10
4312;DHT22;2169;49.086;9.284;2023-01-04T04:55:21;4.60;73.30
4312;DHT22;2169;49.086;9.284;2023-01-04T04:57:47;4.60;73.20
4312;DHT22;2169;49.086;9.284;2023-01-04T05:00:15;4.60;73.30
4312;DHT22;2169;49.086;9.284;2023-01-04T05:02:42;4.60;73.30
4312;DHT22;2169;49.086;9.284;2023-01-04T05:05:09;4.60;73.30
4312;DHT22;2169;49.086;9.284;2023-01-04T05:07:35;4.60;73.30
4312;DHT22;2169;49.086;9.284;2023-01-04T05:10:03;4.60;73.30
4312;DHT22;2169;49.086;9.284;2023-01-04T05:12:31;4.70;73.40
4312;DHT22;2169;49.086;9.284;2023-01-04T05:15:15;4.70;73.50
4312;DHT22;2169;49.086;9.284;2023-01-04T05:17:42;4.70;74.10
4312;DHT22;2169;49.086;9.284;2023-01-04T05:20:09;4.80;73.50
4312;DHT22;2169;49.086;9.284;2023-01-04T05:22:36;4.80;73.50
4312;DHT22;2169;49.086;9.284;2023-01-04T05:25:03;4.80;73.50
4312;DHT22;2169;49.086;9.284;2023-01-04T05:27:32;4.80;73.50
4312;DHT22;2169;49.086;9.284;2023-01-04T05:29:58;4.80;73.50
4312;DHT22;2169;49.086;9.284;2023-01-04T05:32:43;4.80;73.60
4312;DHT22;2169;49.086;9.284;2023-01-04T05:35:10;4.80;73.50
4312;DHT22;2169;49.086;9.284;2023-01-04T05:37:37;4.90;73.60
4312;DHT22;2169;49.086;9.284;2023-01-04T05:40:04;4.90;73.60
4312;DHT22;2169;49.086;9.284;2023-01-04T05:42:32;4.90;73.70
4312;DHT22;2169;49.086;9.284;2023-01-04T05:44:59;4.90;73.70
4312;DHT22;2169;49.086;9.284;2023-01-04T05:47:26;5.00;73.80
4312;DHT22;2169;49.086;9.284;2023-01-04T05:49:54;5.00;73.80
4312;DHT22;2169;49.086;9.284;2023-01-04T05:52:21;5.00;73.80
4312;DHT22;2169;49.086;9.284;2023-01-04T05:54:48;5.10;73.80
4312;DHT22;2169;49.086;9.284;2023-01-04T05:57:15;5.10;73.80
4312;DHT22;2169;49.086;9.284;2023-01-04T05:59:43;5.10;73.80
4312;DHT22;2169;49.086;9.284;2023-01-04T06:02:14;5.10;73.80
4312;DHT22;2169;49.086;9.284;2023-01-04T06:04:41;5.20;73.80
4312;DHT22;2169;49.086;9.284;2023-01-04T06:07:08;5.20;73.80
4312;DHT22;2169;49.086;9.284;2023-01-04T06:09:35;5.20;73.80
4312;DHT22;2169;49.086;9.284;2023-01-04T06:12:02;5.20;73.70
4312;DHT22;2169;49.086;9.284;2023-01-04T06:14:28;5.30;73.80
4312;DHT22;2169;49.086;9.284;2023-01-04T06:16:57;5.30;73.70
4312;DHT22;2169;49.086;9.284;2023-01-04T06:19:23;5.30;73.70
4312;DHT22;2169;49.086;9.284;2023-01-04T06:21:50;5.30;73.70
4312;DHT22;2169;49.086;9.284;2023-01-04T06:24:17;5.40;73.70
4312;DHT22;2169;49.086;9.284;2023-01-04T06:26:43;5.40;73.80
4312;DHT22;2169;49.086;9.284;2023-01-04T06:29:10;5.50;73.80
4312;DHT22;2169;49.086;9.284;2023-01-04T06:31:37;5.50;73.70
4312;DHT22;2169;49.086;9.284;2023-01-04T06:34:06;5.50;73.70
4312;DHT22;2169;49.086;9.284;2023-01-04T06:36:33;5.50;73.70
4312;DHT22;2169;49.086;9.284;2023-01-04T06:39:00;5.50;73.60
4312;DHT22;2169;49.086;9.284;2023-01-04T06:41:27;5.60;73.70
4312;DHT22;2169;49.086;9.284;2023-01-04T06:43:53;5.60;73.70
4312;DHT22;2169;49.086;9.284;2023-01-04T06:46:20;5.60;73.70
4312;DHT22;2169;49.086;9.284;2023-01-04T06:48:47;5.60;73.60
4312;DHT22;2169;49.086;9.284;2023-01-04T06:51:15;5.70;73.70
4312;DHT22;2169;49.086;9.284;2023-01-04T06:53:42;5.70;73.70
4312;DHT22;2169;49.086;9.284;2023-01-04T06:56:08;5.70;73.60
4312;DHT22;2169;49.086;9.284;2023-01-04T06:58:35;5.80;73.70
4312;DHT22;2169;49.086;9.284;2023-01-04T07:01:02;5.80;73.70
4312;DHT22;2169;49.086;9.284;2023-01-04T07:03:29;5.80;73.60
4312;DHT22;2169;49.086;9.284;2023-01-04T07:05:56;5.80;73.60
4312;DHT22;2169;49.086;9.284;2023-01-04T07:08:24;5.90;73.70
4312;DHT22;2169;49.086;9.284;2023-01-04T07:10:51;5.90;73.70
4312;DHT22;2169;49.086;9.284;2023-01-04T07:13:18;5.90;73.60
4312;DHT22;2169;49.086;9.284;2023-01-04T07:15:44;6.00;73.80
4312;DHT22;2169;49.086;9.284;2023-01-04T07:18:11;6.00;73.80
4312;DHT22;2169;49.086;9.284;2023-01-04T07:20:38;6.00;73.70
4312;DHT22;2169;49.086;9.284;2023-01-04T07:23:05;6.00;73.70
4312;DHT22;2169;49.086;9.284;2023-01-04T07:25:34;6.10;73.80
4312;DHT22;2169;49.086;9.284;2023-01-04T07:28:01;6.10;73.70
4312;DHT22;2169;49.086;9.284;2023-01-04T07:30:28;6.10;73.70
4312;DHT22;2169;49.086;9.284;2023-01-04T07:32:55;6.20;73.80
4312;DHT22;2169;49.086;9.284;2023-01-04T07:35:22;6.20;73.80
4312;DHT22;2169;49.086;9.284;2023-01-04T07:37:49;6.20;73.80
4312;DHT22;2169;49.086;9.284;2023-01-04T07:40:16;6.20;73.80
4312;DHT22;2169;49.086;9.284;2023-01-04T07:42:52;6.20;73.90
4312;DHT22;2169;49.086;9.284;2023-01-04T07:45:19;6.20;73.90
4312;DHT22;2169;49.086;9.284;2023-01-04T07:47:46;6.20;73.90
4312;DHT22;2169;49.086;9.284;2023-01-04T07:50:13;6.20;73.90
4312;DHT22;2169;49.086;9.284;2023-01-04T07:52:39;6.30;74.00
4312;DHT22;2169;49.086;9.284;2023-01-04T07:55:07;6.30;74.10
4312;DHT22;2169;49.086;9.284;2023-01-04T07:57:34;6.30;74.10
4312;DHT22;2169;49.086;9.284;2023-01-04T08:00:02;6.30;74.10
4312;DHT22;2169;49.086;9.284;2023-01-04T08:02:29;6.30;74.10
4312;DHT22;2169;49.086;9.284;2023-01-04T08:04:56;6.30;74.20
4312;DHT22;2169;49.086;9.284;2023-01-04T08:07:23;6.30;74.20
4312;DHT22;2169;49.086;9.284;2023-01-04T08:09:49;6.30;74.30
4312;DHT22;2169;49.086;9.284;2023-01-04T08:12:16;6.30;74.30
4312;DHT22;2169;49.086;9.284;2023-01-04T08:14:43;6.40;74.40
4312;DHT22;2169;49.086;9.284;2023-01-04T08:17:11;6.40;74.40
4312;DHT22;2169;49.086;9.284;2023-01-04T08:19:38;6.40;74.40
4312;DHT22;2169;49.086;9.284;2023-01-04T08:22:04;6.40;74.50
4312;DHT22;2169;49.086;9.284;2023-01-04T08:24:31;6.40;74.50
4312;DHT22;2169;49.086;9.284;2023-01-04T08:26:58;6.40;74.60
4312;DHT22;2169;49.086;9.284;2023-01-04T08:29:24;6.40;75.30
4312;DHT22;2169;49.086;9.284;2023-01-04T08:31:51;6.50;74.70
4312;DHT22;2169;49.086;9.284;2023-01-04T08:34:19;6.50;74.80
4312;DHT22;2169;49.086;9.284;2023-01-04T08:36:47;6.50;74.80
4312;DHT22;2169;49.086;9.284;2023-01-04T08:39:14;6.50;74.80
4312;DHT22;2169;49.086;9.284;2023-01-04T08:41:41;6.50;74.80
4312;DHT22;2169;49.086;9.284;2023-01-04T08:44:18;6.60;74.90
4312;DHT22;2169;49.086;9.284;2023-01-04T08:46:45;6.60;75.00
4312;DHT22;2169;49.086;9.284;2023-01-04T08:49:12;6.60;75.10
4312;DHT22;2169;49.086;9.284;2023-01-04T08:51:40;6.60;75.10
4312;DHT22;2169;49.086;9.284;2023-01-04T08:54:07;6.70;75.20
4312;DHT22;2169;49.086;9.284;2023-01-04T08:56:34;6.70;75.20
4312;DHT22;2169;49.086;9.284;2023-01-04T08:59:01;6.70;75.20
4312;DHT22;2169;49.086;9.284;2023-01-04T09:01:28;6.70;75.20
4312;DHT22;2169;49.086;9.284;2023-01-04T09:03:56;6.80;75.30
4312;DHT22;2169;49.086;9.284;2023-01-04T09:06:23;6.80;75.30
4312;DHT22;2169;49.086;9.284;2023-01-04T09:08:52;6.80;75.30
4312;DHT22;2169;49.086;9.284;2023-01-04T09:11:20;6.90;75.30
4312;DHT22;2169;49.086;9.284;2023-01-04T09:13:48;6.90;75.30
4312;DHT22;2169;49.086;9.284;2023-01-04T09:16:16;6.90;75.30
4312;DHT22;2169;49.086;9.284;2023-01-04T09:18:44;6.90;75.20
4312;DHT22;2169;49.086;9.284;2023-01-04T09:21:12;7.00;75.30
4312;DHT22;2169;49.086;9.284;2023-01-04T09:23:40;7.00;75.20
4312;DHT22;2169;49.086;9.284;2023-01-04T09:26:10;7.00;75.20
4312;DHT22;2169;49.086;9.284;2023-01-04T09:28:38;7.10;75.20
4312;DHT22;2169;49.086;9.284;2023-01-04T09:31:06;7.10;75.10
4312;DHT22;2169;49.086;9.284;2023-01-04T09:33:33;7.10;75.10
4312;DHT22;2169;49.086;9.284;2023-01-04T09:36:00;7.10;75.10
4312;DHT22;2169;49.086;9.284;2023-01-04T09:38:28;7.10;75.00
4312;DHT22;2169;49.086;9.284;2023-01-04T09:41:00;7.20;75.00
4312;DHT22;2169;49.086;9.284;2023-01-04T09:43:36;7.20;75.00
4312;DHT22;2169;49.086;9.284;2023-01-04T09:46:08;7.20;74.90
4312;DHT22;2169;49.086;9.284;2023-01-04T09:48:36;7.20;74.90
4312;DHT22;2169;49.086;9.284;2023-01-04T09:51:11;7.30;74.90
4312;DHT22;2169;49.086;9.284;2023-01-04T09:53:43;7.30;74.90
4312;DHT22;2169;49.086;9.284;2023-01-04T09:56:17;7.30;74.80
4312;DHT22;2169;49.086;9.284;2023-01-04T09:58:47;7.40;74.90
4312;DHT22;2169;49.086;9.284;2023-01-04T10:01:19;7.40;74.80
4312;DHT22;2169;49.086;9.284;2023-01-04T10:03:53;7.40;74.70
4312;DHT22;2169;49.086;9.284;2023-01-04T10:06:21;7.40;74.70
4312;DHT22;2169;49.086;9.284;2023-01-04T10:08:48;7.50;74.70
4312;DHT22;2169;49.086;9.284;2023-01-04T10:11:24;7.50;74.70
4312;DHT22;2169;49.086;9.284;2023-01-04T10:14:04;7.50;74.60
4312;DHT22;2169;49.086;9.284;2023-01-04T10:16:46;7.50;74.60
4312;DHT22;2169;49.086;9.284;2023-01-04T10:19:27;7.60;74.60
4312;DHT22;2169;49.086;9.284;2023-01-04T10:22:00;7.60;74.60
4312;DHT22;2169;49.086;9.284;2023-01-04T10:24:37;7.60;74.50
4312;DHT22;2169;49.086;9.284;2023-01-04T10:27:11;7.60;74.50
4312;DHT22;2169;49.086;9.284;2023-01-04T10:30:00;7.70;74.60
4312;DHT22;2169;49.086;9.284;2023-01-04T10:32:34;7.70;74.50
4312;DHT22;2169;49.086;9.284;2023-01-04T10:35:15;7.70;74.50
4312;DHT22;2169;49.086;9.284;2023-01-04T10:37:42;7.80;74.50
4312;DHT22;2169;49.086;9.284;2023-01-04T10:40:12;7.80;74.50
4312;DHT22;2169;49.086;9.284;2023-01-04T10:42:44;7.90;74.50
4312;DHT22;2169;49.086;9.284;2023-01-04T10:45:18;7.90;74.40
4312;DHT22;2169;49.086;9.284;2023-01-04T10:47:54;7.90;74.30
4312;DHT22;2169;49.086;9.284;2023-01-04T10:50:28;8.00;74.30
4312;DHT22;2169;49.086;9.284;2023-01-04T10:53:00;8.00;74.30
4312;DHT22;2169;49.086;9.284;2023-01-04T10:55:35;8.10;74.30
4312;DHT22;2169;49.086;9.284;2023-01-04T10:58:09;8.10;74.20
4312;DHT22;2169;49.086;9.284;2023-01-04T11:00:43;8.20;74.30
4312;DHT22;2169;49.086;9.284;2023-01-04T11:03:15;8.20;74.20
4312;DHT22;2169;49.086;9.284;2023-01-04T11:05:48;8.20;74.10
4312;DHT22;2169;49.086;9.284;2023-01-04T11:08:20;8.30;74.10
4312;DHT22;2169;49.086;9.284;2023-01-04T11:10:51;8.30;74.10
4312;DHT22;2169;49.086;9.284;2023-01-04T11:13:18;8.40;74.00
4312;DHT22;2169;49.086;9.284;2023-01-04T11:15:46;8.40;74.00
4312;DHT22;2169;49.086;9.284;2023-01-04T11:18:14;8.50;73.90
4312;DHT22;2169;49.086;9.284;2023-01-04T11:20:42;8.50;74.50
4312;DHT22;2169;49.086;9.284;2023-01-04T11:23:13;8.60;73.80
4312;DHT22;2169;49.086;9.284;2023-01-04T11:25:44;8.60;73.70
4312;DHT22;2169;49.086;9.284;2023-01-04T11:28:17;8.60;73.60
4312;DHT22;2169;49.086;9.284;2023-01-04T11:30:53;8.70;73.50
4312;DHT22;2169;49.086;9.284;2023-01-04T11:33:22;8.70;73.40
4312;DHT22;2169;49.086;9.284;2023-01-04T11:35:51;8.70;73.90
4312;DHT22;2169;49.086;9.284;2023-01-04T11:38:19;8.80;73.30
4312;DHT22;2169;49.086;9.284;2023-01-04T11:40:55;8.80;73.20
4312;DHT22;2169;49.086;9.284;2023-01-04T11:43:24;8.90;73.30
4312;DHT22;2169;49.086;9.284;2023-01-04T11:46:01;8.90;73.20
4312;DHT22;2169;49.086;9.284;2023-01-04T11:48:46;9.00;73.30
4312;DHT22;2169;49.086;9.284;2023-01-04T11:51:18;9.00;73.20
4312;DHT22;2169;49.086;9.284;2023-01-04T11:53:55;9.00;73.20
4312;DHT22;2169;49.086;9.284;2023-01-04T11:56:24;9.00;73.10
4312;DHT22;2169;49.086;9.284;2023-01-04T11:59:07;9.00;73.10
4312;DHT22;2169;49.086;9.284;2023-01-04T12:01:38;9.10;73.20
4312;DHT22;2169;49.086;9.284;2023-01-04T12:04:10;9.10;73.20
4312;DHT22;2169;49.086;9.284;2023-01-04T12:06:40;9.10;73.20
4312;DHT22;2169;49.086;9.284;2023-01-04T12:09:13;9.20;73.30
4312;DHT22;2169;49.086;9.284;2023-01-04T12:11:42;9.20;73.30
4312;DHT22;2169;49.086;9.284;2023-01-04T12:14:18;9.20;73.30
4312;DHT22;2169;49.086;9.284;2023-01-04T12:16:52;9.20;73.30
4312;DHT22;2169;49.086;9.284;2023-01-04T12:19:20;9.20;73.30
4312;DHT22;2169;49.086;9.284;2023-01-04T12:21:48;9.20;73.40
4312;DHT22;2169;49.086;9.284;2023-01-04T12:24:18;9.20;73.50
4312;DHT22;2169;49.086;9.284;2023-01-04T12:26:47;9.30;73.70
4312;DHT22;2169;49.086;9.284;2023-01-04T12:29:39;9.30;73.70
4312;DHT22;2169;49.086;9.284;2023-01-04T12:32:42;9.30;73.80
4312;DHT22;2169;49.086;9.284;2023-01-04T12:38:56;9.30;73.90
4312;DHT22;2169;49.086;9.284;2023-01-04T12:45:02;9.20;74.10
4312;DHT22;2169;49.086;9.284;2023-01-04T12:47:39;9.20;74.30
4312;DHT22;2169;49.086;9.284;2023-01-04T12:50:25;9.20;74.40
4312;DHT22;2169;49.086;9.284;2023-01-04T12:52:54;9.20;74.40
4312;DHT22;2169;49.086;9.284;2023-01-04T12:58:39;9.20;74.60
4312;DHT22;2169;49.086;9.284;2023-01-04T13:01:09;9.20;74.70
4312;DHT22;2169;49.086;9.284;2023-01-04T13:03:46;9.20;74.80
4312;DHT22;2169;49.086;9.284;2023-01-04T13:06:18;9.20;74.80
4312;DHT22;2169;49.086;9.284;2023-01-04T13:08:48;9.20;74.90
4312;DHT22;2169;49.086;9.284;2023-01-04T13:11:25;9.20;74.90
4312;DHT22;2169;49.086;9.284;2023-01-04T13:13:59;9.30;75.00
4312;DHT22;2169;49.086;9.284;2023-01-04T13:16:36;9.30;74.90
4312;DHT22;2169;49.086;9.284;2023-01-04T13:19:12;9.30;74.90
4312;DHT22;2169;49.086;9.284;2023-01-04T13:21:43;9.40;75.00
4312;DHT22;2169;49.086;9.284;2023-01-04T13:24:19;9.40;74.90
4312;DHT22;2169;49.086;9.284;2023-01-04T13:26:47;9.40;74.80
4312;DHT22;2169;49.086;9.284;2023-01-04T13:29:17;9.40;74.80
4312;DHT22;2169;49.086;9.284;2023-01-04T13:31:47;9.50;74.70
4312;DHT22;2169;49.086;9.284;2023-01-04T13:34:18;9.50;74.60
4312;DHT22;2169;49.086;9.284;2023-01-04T13:37:01;9.50;74.50
4312;DHT22;2169;49.086;9.284;2023-01-04T13:39:30;9.60;75.20
4312;DHT22;2169;49.086;9.284;2023-01-04T13:41:57;9.60;74.40
4312;DHT22;2169;49.086;9.284;2023-01-04T13:44:37;9.60;74.30
4312;DHT22;2169;49.086;9.284;2023-01-04T13:47:08;9.70;74.30
4312;DHT22;2169;49.086;9.284;2023-01-04T13:49:36;9.70;74.90
4312;DHT22;2169;49.086;9.284;2023-01-04T13:52:21;9.70;74.20
4312;DHT22;2169;49.086;9.284;2023-01-04T13:54:47;9.80;74.30
4312;DHT22;2169;49.086;9.284;2023-01-04T13:57:15;9.80;74.10
4312;DHT22;2169;49.086;9.284;2023-01-04T13:59:47;9.80;74.10
4312;DHT22;2169;49.086;9.284;2023-01-04T14:02:15;9.80;74.00
4312;DHT22;2169;49.086;9.284;2023-01-04T14:04:43;9.90;74.00
4312;DHT22;2169;49.086;9.284;2023-01-04T14:07:11;9.90;73.90
4312;DHT22;2169;49.086;9.284;2023-01-04T14:09:45;9.90;73.90
4312;DHT22;2169;49.086;9.284;2023-01-04T14:12:15;10.00;72.90
4312;DHT22;2169;49.086;9.284;2023-01-04T14:14:51;10.00;72.80
4312;DHT22;2169;49.086;9.284;2023-01-04T14:17:22;10.00;72.70
4312;DHT22;2169;49.086;9.284;2023-01-04T14:19:52;10.00;72.70
4312;DHT22;2169;49.086;9.284;2023-01-04T14:22:40;10.00;72.60
4312;DHT22;2169;49.086;9.284;2023-01-04T14:25:36;10.10;72.70
4312;DHT22;2169;49.086;9.284;2023-01-04T14:28:31;10.10;72.50
4312;DHT22;2169;49.086;9.284;2023-01-04T14:31:13;10.10;72.50
4312;DHT22;2169;49.086;9.284;2023-01-04T14:33:44;10.10;72.50
4312;DHT22;2169;49.086;9.284;2023-01-04T14:36:15;10.20;72.50
4312;DHT22;2169;49.086;9.284;2023-01-04T14:38:46;10.20;72.50
4312;DHT22;2169;49.086;9.284;2023-01-04T14:41:20;10.20;72.40
4312;DHT22;2169;49.086;9.284;2023-01-04T14:43:50;10.20;72.30
4312;DHT22;2169;49.086;9.284;2023-01-04T14:46:18;10.20;72.20
4312;DHT22;2169;49.086;9.284;2023-01-04T14:48:45;10.20;72.10
4312;DHT22;2169;49.086;9.284;2023-01-04T14:51:15;10.30;72.20
4312;DHT22;2169;49.086;9.284;2023-01-04T14:53:42;10.30;72.20
4312;DHT22;2169;49.086;9.284;2023-01-04T14:56:12;10.30;72.80
4312;DHT22;2169;49.086;9.284;2023-01-04T14:58:40;10.30;72.00
4312;DHT22;2169;49.086;9.284;2023-01-04T15:01:07;10.30;72.00
4312;DHT22;2169;49.086;9.284;2023-01-04T15:03:35;10.40;72.00
4312;DHT22;2169;49.086;9.284;2023-01-04T15:06:02;10.40;72.00
4312;DHT22;2169;49.086;9.284;2023-01-04T15:08:29;10.40;71.90
4312;DHT22;2169;49.086;9.284;2023-01-04T15:10:55;10.40;71.90
4312;DHT22;2169;49.086;9.284;2023-01-04T15:13:22;10.40;71.80
4312;DHT22;2169;49.086;9.284;2023-01-04T15:15:50;10.40;71.70
4312;DHT22;2169;49.086;9.284;2023-01-04T15:18:17;10.50;71.80
4312;DHT22;2169;49.086;9.284;2023-01-04T15:20:44;10.50;71.70
4312;DHT22;2169;49.086;9.284;2023-01-04T15:23:12;10.50;71.70
4312;DHT22;2169;49.086;9.284;2023-01-04T15:25:39;10.50;71.60
4312;DHT22;2169;49.086;9.284;2023-01-04T15:28:07;10.50;71.60
4312;DHT22;2169;49.086;9.284;2023-01-04T15:30:33;10.50;71.50
4312;DHT22;2169;49.086;9.284;2023-01-04T15:33:02;10.50;71.40
4312;DHT22;2169;49.086;9.284;2023-01-04T15:35:28;10.50;71.30
4312;DHT22;2169;49.086;9.284;2023-01-04T15:37:55;10.50;71.30
4312;DHT22;2169;49.086;9.284;2023-01-04T15:40:22;10.60;72.00
4312;DHT22;2169;49.086;9.284;2023-01-04T15:42:48;10.60;71.30
4312;DHT22;2169;49.086;9.284;2023-01-04T15:45:23;10.60;71.20
4312;DHT22;2169;49.086;9.284;2023-01-04T15:47:50;10.60;71.20
4312;DHT22;2169;49.086;9.284;2023-01-04T15:50:19;10.60;71.20
4312;DHT22;2169;49.086;9.284;2023-01-04T15:52:46;10.60;71.20
4312;DHT22;2169;49.086;9.284;2023-01-04T15:55:12;10.60;71.20
4312;DHT22;2169;49.086;9.284;2023-01-04T15:57:40;10.60;71.10
4312;DHT22;2169;49.086;9.284;2023-01-04T16:00:08;10.60;71.10
4312;DHT22;2169;49.086;9.284;2023-01-04T16:02:34;10.70;71.20
4312;DHT22;2169;49.086;9.284;2023-01-04T16:05:01;10.70;71.10
4312;DHT22;2169;49.086;9.284;2023-01-04T16:07:29;11.00;70.70
4312;DHT22;2169;49.086;9.284;2023-01-04T16:09:56;10.80;70.70
4312;DHT22;2169;49.086;9.284;2023-01-04T16:12:23;10.80;70.90
4312;DHT22;2169;49.086;9.284;2023-01-04T16:15:11;10.80;70.90
4312;DHT22;2169;49.086;9.284;2023-01-04T16:17:39;10.70;70.90
4312;DHT22;2169;49.086;9.284;2023-01-04T16:20:07;10.70;70.90
4312;DHT22;2169;49.086;9.284;2023-01-04T16:22:35;10.70;70.90
4312;DHT22;2169;49.086;9.284;2023-01-04T16:25:02;10.70;70.90
4312;DHT22;2169;49.086;9.284;2023-01-04T16:27:30;10.70;70.90
4312;DHT22;2169;49.086;9.284;2023-01-04T16:29:57;10.70;70.90
4312;DHT22;2169;49.086;9.284;2023-01-04T16:32:24;10.70;70.80
4312;DHT22;2169;49.086;9.284;2023-01-04T16:34:51;10.70;70.80
4312;DHT22;2169;49.086;9.284;2023-01-04T16:37:18;10.70;70.80
4312;DHT22;2169;49.086;9.284;2023-01-04T16:39:48;10.70;70.80
4312;DHT22;2169;49.086;9.284;2023-01-04T16:42:15;10.70;70.80
4312;DHT22;2169;49.086;9.284;2023-01-04T16:44:42;10.70;70.80
4312;DHT22;2169;49.086;9.284;2023-01-04T16:47:09;10.70;70.80
4312;DHT22;2169;49.086;9.284;2023-01-04T16:49:35;10.80;70.90
4312;DHT22;2169;49.086;9.284;2023-01-04T16:52:02;10.80;70.90